sensor_id;sensor_type;location;lat;lon;timestamp;P1;durP1;ratioP1;P2;durP2;ratioP2
13319;SDS011;59599;47.608;12.190;2023-04-29T04:00:09;2.90;;;2.60;;
13319;SDS011;59599;47.608;12.190;2023-04-29T04:02:36;4.53;;;2.90;;
13319;SDS011;59599;47.608;12.190;2023-04-29T04:05:01;3.17;;;2.40;;
13319;SDS011;59599;47.608;12.190;2023-04-29T04:07:27;2.50;;;2.30;;
13319;SDS011;59599;47.608;12.190;2023-04-29T04:09:53;3.30;;;1.83;;
13319;SDS011;59599;47.608;12.190;2023-04-29T04:12:19;2.73;;;1.57;;
13319;SDS011;59599;47.608;12.190;2023-04-29T04:14:44;4.97;;;1.40;;
13319;SDS011;59599;47.608;12.190;2023-04-29T04:17:11;1.60;;;1.50;;
13319;SDS011;59599;47.608;12.190;2023-04-29T04:19:36;1.80;;;1.67;;
13319;SDS011;59599;47.608;12.190;2023-04-29T04:22:02;2.50;;;1.80;;
13319;SDS011;59599;47.608;12.190;2023-04-29T04:24:28;1.87;;;1.70;;
13319;SDS011;59599;47.608;12.190;2023-04-29T04:26:54;2.30;;;1.80;;
13319;SDS011;59599;47.608;12.190;2023-04-29T04:29:20;3.30;;;2.30;;
13319;SDS011;59599;47.608;12.190;2023-04-29T04:31:46;2.50;;;2.30;;
13319;SDS011;59599;47.608;12.190;2023-04-29T04:34:12;4.30;;;2.43;;
13319;SDS011;59599;47.608;12.190;2023-04-29T04:36:37;2.73;;;2.53;;
13319;SDS011;59599;47.608;12.190;2023-04-29T04:39:03;3.93;;;2.80;;
13319;SDS011;59599;47.608;12.190;2023-04-29T04:41:29;4.90;;;2.43;;
13319;SDS011;59599;47.608;12.190;2023-04-29T04:43:56;2.80;;;2.60;;
13319;SDS011;59599;47.608;12.190;2023-04-29T04:46:22;2.87;;;2.57;;
13319;SDS011;59599;47.608;12.190;2023-04-29T04:48:48;3.07;;;2.87;;
13319;SDS011;59599;47.608;12.190;2023-04-29T04:51:14;3.60;;;3.03;;
13319;SDS011;59599;47.608;12.190;2023-04-29T04:53:40;5.63;;;3.60;;
13319;SDS011;59599;47.608;12.190;2023-04-29T04:56:06;5.67;;;3.03;;
13319;SDS011;59599;47.608;12.190;2023-04-29T04:58:32;3.50;;;3.20;;
13319;SDS011;59599;47.608;12.190;2023-04-29T05:00:58;6.83;;;3.50;;
13319;SDS011;59599;47.608;12.190;2023-04-29T05:03:24;3.80;;;3.27;;
13319;SDS011;59599;47.608;12.190;2023-04-29T05:05:54;3.50;;;2.83;;
13319;SDS011;59599;47.608;12.190;2023-04-29T05:08:20;3.83;;;2.93;;
13319;SDS011;59599;47.608;12.190;2023-04-29T05:10:46;2.97;;;2.60;;
13319;SDS011;59599;47.608;12.190;2023-04-29T05:13:11;4.33;;;2.80;;
13319;SDS011;59599;47.608;12.190;2023-04-29T05:15:37;2.90;;;2.70;;
13319;SDS011;59599;47.608;12.190;2023-04-29T05:18:02;4.33;;;2.73;;
13319;SDS011;59599;47.608;12.190;2023-04-29T05:20:28;3.20;;;2.90;;
13319;SDS011;59599;47.608;12.190;2023-04-29T05:22:54;4.83;;;3.00;;
13319;SDS011;59599;47.608;12.190;2023-04-29T05:25:20;2.80;;;2.37;;
13319;SDS011;59599;47.608;12.190;2023-04-29T05:27:46;3.73;;;2.50;;
13319;SDS011;59599;47.608;12.190;2023-04-29T05:30:12;3.37;;;2.10;;
13319;SDS011;59599;47.608;12.190;2023-04-29T05:32:38;2.57;;;2.07;;
13319;SDS011;59599;47.608;12.190;2023-04-29T05:35:04;4.00;;;2.23;;
13319;SDS011;59599;47.608;12.190;2023-04-29T05:37:30;2.87;;;1.80;;
13319;SDS011;59599;47.608;12.190;2023-04-29T05:39:56;2.20;;;2.00;;
13319;SDS011;59599;47.608;12.190;2023-04-29T05:42:22;2.20;;;1.90;;
13319;SDS011;59599;47.608;12.190;2023-04-29T05:44:48;3.80;;;1.90;;
13319;SDS011;59599;47.608;12.190;2023-04-29T05:47:14;2.40;;;1.80;;
13319;SDS011;59599;47.608;12.190;2023-04-29T05:49:40;4.87;;;2.10;;
13319;SDS011;59599;47.608;12.190;2023-04-29T05:52:06;1.97;;;1.63;;
13319;SDS011;59599;47.608;12.190;2023-04-29T05:54:32;3.17;;;2.07;;
13319;SDS011;59599;47.608;12.190;2023-04-29T05:56:58;2.73;;;1.90;;
13319;SDS011;59599;47.608;12.190;2023-04-29T05:59:27;4.03;;;2.03;;
13319;SDS011;59599;47.608;12.190;2023-04-29T06:01:56;2.00;;;1.90;;
13319;SDS011;59599;47.608;12.190;2023-04-29T06:04:23;2.70;;;2.10;;
13319;SDS011;59599;47.608;12.190;2023-04-29T06:06:49;2.20;;;2.00;;
13319;SDS011;59599;47.608;12.190;2023-04-29T06:09:15;4.03;;;2.10;;
13319;SDS011;59599;47.608;12.190;2023-04-29T06:11:42;2.53;;;2.20;;
13319;SDS011;59599;47.608;12.190;2023-04-29T06:14:11;2.20;;;2.00;;
13319;SDS011;59599;47.608;12.190;2023-04-29T06:16:37;3.30;;;2.50;;
13319;SDS011;59599;47.608;12.190;2023-04-29T06:19:04;3.67;;;3.23;;
13319;SDS011;59599;47.608;12.190;2023-04-29T06:21:29;5.30;;;3.10;;
13319;SDS011;59599;47.608;12.190;2023-04-29T06:23:55;2.40;;;2.20;;
13319;SDS011;59599;47.608;12.190;2023-04-29T06:26:22;3.60;;;2.20;;
13319;SDS011;59599;47.608;12.190;2023-04-29T06:28:48;2.77;;;2.27;;
13319;SDS011;59599;47.608;12.190;2023-04-29T06:31:13;3.60;;;2.50;;
13319;SDS011;59599;47.608;12.190;2023-04-29T06:33:39;4.80;;;2.27;;
13319;SDS011;59599;47.608;12.190;2023-04-29T06:36:05;5.27;;;3.77;;
13319;SDS011;59599;47.608;12.190;2023-04-29T06:38:31;5.53;;;3.40;;
13319;SDS011;59599;47.608;12.190;2023-04-29T06:40:56;7.33;;;4.73;;
13319;SDS011;59599;47.608;12.190;2023-04-29T06:43:25;4.23;;;2.77;;
13319;SDS011;59599;47.608;12.190;2023-04-29T06:45:51;3.83;;;2.73;;
13319;SDS011;59599;47.608;12.190;2023-04-29T06:48:17;4.10;;;2.80;;
13319;SDS011;59599;47.608;12.190;2023-04-29T06:50:49;4.40;;;3.10;;
13319;SDS011;59599;47.608;12.190;2023-04-29T06:53:16;3.87;;;3.47;;
13319;SDS011;59599;47.608;12.190;2023-04-29T06:55:41;5.10;;;2.87;;
13319;SDS011;59599;47.608;12.190;2023-04-29T06:58:07;6.07;;;3.30;;
13319;SDS011;59599;47.608;12.190;2023-04-29T07:00:33;4.33;;;2.63;;
13319;SDS011;59599;47.608;12.190;2023-04-29T07:02:59;5.47;;;2.90;;
13319;SDS011;59599;47.608;12.190;2023-04-29T07:05:25;4.37;;;2.90;;
13319;SDS011;59599;47.608;12.190;2023-04-29T07:07:51;3.10;;;2.40;;
13319;SDS011;59599;47.608;12.190;2023-04-29T07:10:17;2.53;;;2.27;;
13319;SDS011;59599;47.608;12.190;2023-04-29T07:12:43;3.23;;;2.43;;
13319;SDS011;59599;47.608;12.190;2023-04-29T07:15:09;5.50;;;2.50;;
13319;SDS011;59599;47.608;12.190;2023-04-29T07:17:34;2.57;;;1.90;;
13319;SDS011;59599;47.608;12.190;2023-04-29T07:20:00;3.07;;;2.10;;
13319;SDS011;59599;47.608;12.190;2023-04-29T07:22:26;6.53;;;2.47;;
13319;SDS011;59599;47.608;12.190;2023-04-29T07:24:52;2.10;;;1.97;;
13319;SDS011;59599;47.608;12.190;2023-04-29T07:27:19;1.80;;;1.70;;
13319;SDS011;59599;47.608;12.190;2023-04-29T07:29:44;6.40;;;1.83;;
13319;SDS011;59599;47.608;12.190;2023-04-29T07:32:10;3.17;;;2.13;;
13319;SDS011;59599;47.608;12.190;2023-04-29T07:34:36;3.20;;;2.43;;
13319;SDS011;59599;47.608;12.190;2023-04-29T07:37:02;2.80;;;2.50;;
13319;SDS011;59599;47.608;12.190;2023-04-29T07:39:28;3.33;;;2.90;;
13319;SDS011;59599;47.608;12.190;2023-04-29T07:41:55;2.30;;;2.00;;
13319;SDS011;59599;47.608;12.190;2023-04-29T07:44:21;3.73;;;2.07;;
13319;SDS011;59599;47.608;12.190;2023-04-29T07:46:47;2.40;;;2.20;;
13319;SDS011;59599;47.608;12.190;2023-04-29T07:49:12;4.73;;;1.97;;
13319;SDS011;59599;47.608;12.190;2023-04-29T07:51:42;4.43;;;3.30;;
13319;SDS011;59599;47.608;12.190;2023-04-29T07:54:08;3.00;;;2.10;;
13319;SDS011;59599;47.608;12.190;2023-04-29T07:56:33;2.80;;;1.93;;
13319;SDS011;59599;47.608;12.190;2023-04-29T07:58:59;2.00;;;1.80;;
13319;SDS011;59599;47.608;12.190;2023-04-29T08:01:26;3.80;;;1.87;;
13319;SDS011;59599;47.608;12.190;2023-04-29T08:03:52;2.10;;;1.90;;
13319;SDS011;59599;47.608;12.190;2023-04-29T08:06:18;2.03;;;1.80;;
13319;SDS011;59599;47.608;12.190;2023-04-29T08:08:46;2.17;;;1.80;;
13319;SDS011;59599;47.608;12.190;2023-04-29T08:11:15;1.80;;;1.70;;
13319;SDS011;59599;47.608;12.190;2023-04-29T08:13:41;2.17;;;1.97;;
13319;SDS011;59599;47.608;12.190;2023-04-29T08:16:07;2.60;;;1.87;;
13319;SDS011;59599;47.608;12.190;2023-04-29T08:18:33;2.10;;;1.60;;
13319;SDS011;59599;47.608;12.190;2023-04-29T08:21:00;2.97;;;1.90;;
13319;SDS011;59599;47.608;12.190;2023-04-29T08:23:26;1.90;;;1.70;;
13319;SDS011;59599;47.608;12.190;2023-04-29T08:25:52;2.35;;;1.45;;
13319;SDS011;59599;47.608;12.190;2023-04-29T08:28:19;2.83;;;1.35;;
13319;SDS011;59599;47.608;12.190;2023-04-29T08:30:46;1.30;;;1.20;;
13319;SDS011;59599;47.608;12.190;2023-04-29T08:33:12;2.30;;;1.40;;
13319;SDS011;59599;47.608;12.190;2023-04-29T08:35:38;3.17;;;1.70;;
13319;SDS011;59599;47.608;12.190;2023-04-29T08:38:04;2.35;;;1.50;;
13319;SDS011;59599;47.608;12.190;2023-04-29T08:40:32;1.55;;;1.10;;
13319;SDS011;59599;47.608;12.190;2023-04-29T08:43:06;1.88;;;1.30;;
13319;SDS011;59599;47.608;12.190;2023-04-29T08:45:33;2.60;;;1.20;;
13319;SDS011;59599;47.608;12.190;2023-04-29T08:48:01;1.80;;;1.20;;
13319;SDS011;59599;47.608;12.190;2023-04-29T08:50:28;3.38;;;1.00;;
13319;SDS011;59599;47.608;12.190;2023-04-29T08:52:55;1.10;;;1.00;;
13319;SDS011;59599;47.608;12.190;2023-04-29T08:55:21;2.95;;;1.15;;
13319;SDS011;59599;47.608;12.190;2023-04-29T08:57:48;1.10;;;1.00;;
13319;SDS011;59599;47.608;12.190;2023-04-29T09:00:14;0.88;;;0.88;;
13319;SDS011;59599;47.608;12.190;2023-04-29T09:02:42;0.88;;;0.88;;
13319;SDS011;59599;47.608;12.190;2023-04-29T09:05:11;1.60;;;1.25;;
13319;SDS011;59599;47.608;12.190;2023-04-29T09:07:37;0.93;;;0.80;;
13319;SDS011;59599;47.608;12.190;2023-04-29T09:10:04;1.27;;;0.75;;
13319;SDS011;59599;47.608;12.190;2023-04-29T09:12:30;1.43;;;1.03;;
13319;SDS011;59599;47.608;12.190;2023-04-29T09:14:56;3.33;;;2.07;;
13319;SDS011;59599;47.608;12.190;2023-04-29T09:20:13;1.80;;;1.37;;
13319;SDS011;59599;47.608;12.190;2023-04-29T09:22:50;1.48;;;1.38;;
13319;SDS011;59599;47.608;12.190;2023-04-29T09:25:17;1.40;;;1.20;;
13319;SDS011;59599;47.608;12.190;2023-04-29T09:27:43;2.23;;;1.43;;
13319;SDS011;59599;47.608;12.190;2023-04-29T09:30:09;4.15;;;1.65;;
13319;SDS011;59599;47.608;12.190;2023-04-29T09:32:36;1.88;;;1.58;;
13319;SDS011;59599;47.608;12.190;2023-04-29T09:37:47;1.85;;;1.60;;
13319;SDS011;59599;47.608;12.190;2023-04-29T09:40:26;2.50;;;1.50;;
13319;SDS011;59599;47.608;12.190;2023-04-29T09:42:54;6.20;;;2.08;;
13319;SDS011;59599;47.608;12.190;2023-04-29T09:45:35;4.80;;;2.13;;
13319;SDS011;59599;47.608;12.190;2023-04-29T09:48:02;1.85;;;1.40;;
13319;SDS011;59599;47.608;12.190;2023-04-29T09:50:29;2.70;;;1.70;;
13319;SDS011;59599;47.608;12.190;2023-04-29T09:52:58;1.85;;;1.65;;
13319;SDS011;59599;47.608;12.190;2023-04-29T09:55:24;2.00;;;1.77;;
13319;SDS011;59599;47.608;12.190;2023-04-29T09:57:51;1.80;;;1.58;;
13319;SDS011;59599;47.608;12.190;2023-04-29T10:00:17;3.47;;;1.90;;
13319;SDS011;59599;47.608;12.190;2023-04-29T10:02:44;2.80;;;1.73;;
13319;SDS011;59599;47.608;12.190;2023-04-29T10:05:11;2.17;;;1.80;;
13319;SDS011;59599;47.608;12.190;2023-04-29T10:07:38;1.83;;;1.65;;
13319;SDS011;59599;47.608;12.190;2023-04-29T10:10:05;1.60;;;1.50;;
13319;SDS011;59599;47.608;12.190;2023-04-29T10:12:33;5.22;;;1.58;;
13319;SDS011;59599;47.608;12.190;2023-04-29T10:15:43;1.75;;;1.42;;
13319;SDS011;59599;47.608;12.190;2023-04-29T10:18:13;1.88;;;1.30;;
13319;SDS011;59599;47.608;12.190;2023-04-29T10:20:39;1.83;;;1.30;;
13319;SDS011;59599;47.608;12.190;2023-04-29T10:23:09;1.30;;;1.20;;
13319;SDS011;59599;47.608;12.190;2023-04-29T10:25:36;2.83;;;1.30;;
13319;SDS011;59599;47.608;12.190;2023-04-29T10:28:02;2.67;;;1.20;;
13319;SDS011;59599;47.608;12.190;2023-04-29T10:30:29;1.45;;;1.00;;
13319;SDS011;59599;47.608;12.190;2023-04-29T10:32:55;1.30;;;1.00;;
13319;SDS011;59599;47.608;12.190;2023-04-29T10:35:21;1.20;;;1.10;;
13319;SDS011;59599;47.608;12.190;2023-04-29T10:37:49;1.95;;;1.20;;
13319;SDS011;59599;47.608;12.190;2023-04-29T10:42:51;1.30;;;1.20;;
13319;SDS011;59599;47.608;12.190;2023-04-29T10:45:27;1.75;;;1.38;;
13319;SDS011;59599;47.608;12.190;2023-04-29T10:53:19;0.85;;;0.80;;
13319;SDS011;59599;47.608;12.190;2023-04-29T10:55:52;0.70;;;0.70;;
13319;SDS011;59599;47.608;12.190;2023-04-29T11:01:13;0.85;;;0.65;;
13319;SDS011;59599;47.608;12.190;2023-04-29T11:03:56;1.23;;;0.90;;
13319;SDS011;59599;47.608;12.190;2023-04-29T11:09:12;2.30;;;0.80;;
13319;SDS011;59599;47.608;12.190;2023-04-29T11:11:40;1.98;;;0.82;;
13319;SDS011;59599;47.608;12.190;2023-04-29T11:14:09;1.10;;;0.70;;
13319;SDS011;59599;47.608;12.190;2023-04-29T11:16:36;1.27;;;0.52;;
13319;SDS011;59599;47.608;12.190;2023-04-29T11:21:32;0.63;;;0.60;;
13319;SDS011;59599;47.608;12.190;2023-04-29T11:23:58;1.27;;;0.73;;
13319;SDS011;59599;47.608;12.190;2023-04-29T11:26:25;0.40;;;0.40;;
13319;SDS011;59599;47.608;12.190;2023-04-29T11:28:51;1.08;;;0.55;;
13319;SDS011;59599;47.608;12.190;2023-04-29T11:31:17;0.63;;;0.63;;
13319;SDS011;59599;47.608;12.190;2023-04-29T11:33:43;1.08;;;0.80;;
13319;SDS011;59599;47.608;12.190;2023-04-29T11:36:10;1.40;;;0.70;;
13319;SDS011;59599;47.608;12.190;2023-04-29T11:38:38;1.25;;;0.98;;
13319;SDS011;59599;47.608;12.190;2023-04-29T11:41:05;1.10;;;0.98;;
13319;SDS011;59599;47.608;12.190;2023-04-29T11:43:31;5.55;;;1.90;;
13319;SDS011;59599;47.608;12.190;2023-04-29T11:45:57;3.78;;;1.67;;
13319;SDS011;59599;47.608;12.190;2023-04-29T11:48:23;2.05;;;1.20;;
13319;SDS011;59599;47.608;12.190;2023-04-29T11:50:52;1.30;;;1.20;;
13319;SDS011;59599;47.608;12.190;2023-04-29T11:53:19;5.30;;;1.58;;
13319;SDS011;59599;47.608;12.190;2023-04-29T11:55:48;2.78;;;1.40;;
13319;SDS011;59599;47.608;12.190;2023-04-29T11:58:16;1.13;;;0.82;;
13319;SDS011;59599;47.608;12.190;2023-04-29T12:00:42;1.80;;;0.93;;
13319;SDS011;59599;47.608;12.190;2023-04-29T12:03:12;1.00;;;0.80;;
13319;SDS011;59599;47.608;12.190;2023-04-29T12:05:44;1.25;;;0.60;;
13319;SDS011;59599;47.608;12.190;2023-04-29T12:08:11;1.60;;;0.73;;
13319;SDS011;59599;47.608;12.190;2023-04-29T12:10:36;1.60;;;1.20;;
13319;SDS011;59599;47.608;12.190;2023-04-29T12:13:02;1.55;;;1.00;;
13319;SDS011;59599;47.608;12.190;2023-04-29T12:15:28;1.23;;;0.90;;
13319;SDS011;59599;47.608;12.190;2023-04-29T12:17:54;0.90;;;0.77;;
13319;SDS011;59599;47.608;12.190;2023-04-29T12:20:20;2.00;;;1.23;;
13319;SDS011;59599;47.608;12.190;2023-04-29T12:22:46;1.48;;;0.88;;
13319;SDS011;59599;47.608;12.190;2023-04-29T12:25:14;0.77;;;0.77;;
13319;SDS011;59599;47.608;12.190;2023-04-29T12:27:40;0.52;;;0.50;;
13319;SDS011;59599;47.608;12.190;2023-04-29T12:30:07;1.02;;;0.60;;
13319;SDS011;59599;47.608;12.190;2023-04-29T12:32:33;2.58;;;0.70;;
13319;SDS011;59599;47.608;12.190;2023-04-29T12:35:00;0.95;;;0.70;;
13319;SDS011;59599;47.608;12.190;2023-04-29T12:37:26;0.98;;;0.70;;
13319;SDS011;59599;47.608;12.190;2023-04-29T12:39:56;1.23;;;0.70;;
13319;SDS011;59599;47.608;12.190;2023-04-29T12:42:21;1.65;;;0.65;;
13319;SDS011;59599;47.608;12.190;2023-04-29T12:44:47;3.47;;;0.80;;
13319;SDS011;59599;47.608;12.190;2023-04-29T12:47:13;2.28;;;0.82;;
13319;SDS011;59599;47.608;12.190;2023-04-29T12:49:40;1.75;;;1.10;;
13319;SDS011;59599;47.608;12.190;2023-04-29T12:52:07;3.58;;;1.17;;
13319;SDS011;59599;47.608;12.190;2023-04-29T12:54:34;1.77;;;1.40;;
13319;SDS011;59599;47.608;12.190;2023-04-29T12:57:01;1.65;;;1.02;;
13319;SDS011;59599;47.608;12.190;2023-04-29T12:59:27;1.73;;;1.08;;
13319;SDS011;59599;47.608;12.190;2023-04-29T13:01:53;1.65;;;0.85;;
13319;SDS011;59599;47.608;12.190;2023-04-29T13:04:19;1.55;;;0.85;;
13319;SDS011;59599;47.608;12.190;2023-04-29T13:06:44;2.33;;;1.10;;
13319;SDS011;59599;47.608;12.190;2023-04-29T13:09:10;1.90;;;1.02;;
13319;SDS011;59599;47.608;12.190;2023-04-29T13:11:39;0.75;;;0.63;;
13319;SDS011;59599;47.608;12.190;2023-04-29T13:14:05;0.80;;;0.80;;
13319;SDS011;59599;47.608;12.190;2023-04-29T13:16:32;0.95;;;0.70;;
13319;SDS011;59599;47.608;12.190;2023-04-29T13:18:58;0.70;;;0.70;;
13319;SDS011;59599;47.608;12.190;2023-04-29T13:21:24;1.73;;;0.90;;
13319;SDS011;59599;47.608;12.190;2023-04-29T13:23:51;1.70;;;0.68;;
13319;SDS011;59599;47.608;12.190;2023-04-29T13:26:17;3.17;;;1.15;;
13319;SDS011;59599;47.608;12.190;2023-04-29T13:28:43;3.00;;;2.42;;
13319;SDS011;59599;47.608;12.190;2023-04-29T13:31:09;2.17;;;2.00;;
13319;SDS011;59599;47.608;12.190;2023-04-29T13:33:35;3.35;;;1.00;;
13319;SDS011;59599;47.608;12.190;2023-04-29T13:36:01;1.10;;;1.00;;
13319;SDS011;59599;47.608;12.190;2023-04-29T13:38:28;4.68;;;3.00;;
13319;SDS011;59599;47.608;12.190;2023-04-29T13:40:54;3.55;;;1.80;;
13319;SDS011;59599;47.608;12.190;2023-04-29T13:43:20;4.57;;;1.13;;
13319;SDS011;59599;47.608;12.190;2023-04-29T13:45:46;1.65;;;1.00;;
13319;SDS011;59599;47.608;12.190;2023-04-29T13:48:12;2.30;;;1.58;;
13319;SDS011;59599;47.608;12.190;2023-04-29T13:50:38;2.38;;;1.42;;
13319;SDS011;59599;47.608;12.190;2023-04-29T13:53:05;3.08;;;2.00;;
13319;SDS011;59599;47.608;12.190;2023-04-29T13:55:32;2.22;;;1.60;;
13319;SDS011;59599;47.608;12.190;2023-04-29T13:58:01;1.20;;;1.10;;
13319;SDS011;59599;47.608;12.190;2023-04-29T14:00:26;2.85;;;0.88;;
13319;SDS011;59599;47.608;12.190;2023-04-29T14:02:53;1.98;;;0.90;;
13319;SDS011;59599;47.608;12.190;2023-04-29T14:05:19;3.53;;;1.17;;
13319;SDS011;59599;47.608;12.190;2023-04-29T14:07:45;1.15;;;1.00;;
13319;SDS011;59599;47.608;12.190;2023-04-29T14:10:11;1.58;;;1.15;;
13319;SDS011;59599;47.608;12.190;2023-04-29T14:12:37;2.42;;;1.60;;
13319;SDS011;59599;47.608;12.190;2023-04-29T14:15:03;4.50;;;2.10;;
13319;SDS011;59599;47.608;12.190;2023-04-29T14:17:29;1.75;;;0.90;;
13319;SDS011;59599;47.608;12.190;2023-04-29T14:19:55;5.45;;;1.17;;
13319;SDS011;59599;47.608;12.190;2023-04-29T14:22:21;2.60;;;1.45;;
13319;SDS011;59599;47.608;12.190;2023-04-29T14:24:47;1.93;;;0.70;;
13319;SDS011;59599;47.608;12.190;2023-04-29T14:27:13;1.80;;;1.00;;
13319;SDS011;59599;47.608;12.190;2023-04-29T14:29:39;4.38;;;2.13;;
13319;SDS011;59599;47.608;12.190;2023-04-29T14:32:05;3.77;;;1.80;;
13319;SDS011;59599;47.608;12.190;2023-04-29T14:34:32;2.33;;;1.30;;
13319;SDS011;59599;47.608;12.190;2023-04-29T14:36:57;2.80;;;1.07;;
13319;SDS011;59599;47.608;12.190;2023-04-29T14:39:24;3.55;;;1.05;;
13319;SDS011;59599;47.608;12.190;2023-04-29T14:41:51;5.40;;;1.70;;
13319;SDS011;59599;47.608;12.190;2023-04-29T14:44:16;3.20;;;1.77;;
13319;SDS011;59599;47.608;12.190;2023-04-29T14:46:42;3.50;;;1.67;;
13319;SDS011;59599;47.608;12.190;2023-04-29T14:49:08;4.23;;;1.90;;
13319;SDS011;59599;47.608;12.190;2023-04-29T14:51:34;3.37;;;2.07;;
13319;SDS011;59599;47.608;12.190;2023-04-29T14:54:00;4.70;;;2.20;;
13319;SDS011;59599;47.608;12.190;2023-04-29T14:56:26;2.57;;;1.97;;
13319;SDS011;59599;47.608;12.190;2023-04-29T14:58:52;3.35;;;2.30;;
13319;SDS011;59599;47.608;12.190;2023-04-29T15:01:18;3.03;;;2.00;;
13319;SDS011;59599;47.608;12.190;2023-04-29T15:03:44;4.65;;;2.20;;
13319;SDS011;59599;47.608;12.190;2023-04-29T15:06:10;2.80;;;1.92;;
13319;SDS011;59599;47.608;12.190;2023-04-29T15:08:36;2.60;;;1.65;;
13319;SDS011;59599;47.608;12.190;2023-04-29T15:11:02;2.60;;;1.70;;
13319;SDS011;59599;47.608;12.190;2023-04-29T15:13:28;2.88;;;1.65;;
13319;SDS011;59599;47.608;12.190;2023-04-29T15:15:54;2.38;;;1.48;;
13319;SDS011;59599;47.608;12.190;2023-04-29T15:18:20;2.15;;;1.58;;
13319;SDS011;59599;47.608;12.190;2023-04-29T15:20:50;1.77;;;1.33;;
13319;SDS011;59599;47.608;12.190;2023-04-29T15:23:16;2.15;;;1.45;;
13319;SDS011;59599;47.608;12.190;2023-04-29T15:25:41;3.58;;;1.23;;
13319;SDS011;59599;47.608;12.190;2023-04-29T15:28:07;2.47;;;0.80;;
13319;SDS011;59599;47.608;12.190;2023-04-29T15:30:33;2.78;;;1.00;;
13319;SDS011;59599;47.608;12.190;2023-04-29T15:33:00;3.75;;;1.30;;
13319;SDS011;59599;47.608;12.190;2023-04-29T15:35:26;2.33;;;1.00;;
13319;SDS011;59599;47.608;12.190;2023-04-29T15:37:52;5.57;;;1.40;;
13319;SDS011;59599;47.608;12.190;2023-04-29T15:40:18;3.08;;;1.63;;
13319;SDS011;59599;47.608;12.190;2023-04-29T15:42:44;3.90;;;1.17;;
13319;SDS011;59599;47.608;12.190;2023-04-29T15:45:10;1.63;;;1.20;;
13319;SDS011;59599;47.608;12.190;2023-04-29T15:47:36;3.80;;;1.27;;
13319;SDS011;59599;47.608;12.190;2023-04-29T15:50:01;1.70;;;1.20;;
13319;SDS011;59599;47.608;12.190;2023-04-29T15:52:27;1.38;;;1.27;;
13319;SDS011;59599;47.608;12.190;2023-04-29T15:54:53;6.20;;;1.77;;
13319;SDS011;59599;47.608;12.190;2023-04-29T15:57:19;7.07;;;3.50;;
13319;SDS011;59599;47.608;12.190;2023-04-29T15:59:45;3.15;;;1.60;;
13319;SDS011;59599;47.608;12.190;2023-04-29T16:02:11;2.67;;;1.30;;
13319;SDS011;59599;47.608;12.190;2023-04-29T16:04:39;4.57;;;1.33;;
13319;SDS011;59599;47.608;12.190;2023-04-29T16:07:05;4.93;;;1.55;;
13319;SDS011;59599;47.608;12.190;2023-04-29T16:09:31;5.57;;;1.67;;
13319;SDS011;59599;47.608;12.190;2023-04-29T16:11:57;2.05;;;1.35;;
13319;SDS011;59599;47.608;12.190;2023-04-29T16:14:23;3.30;;;1.60;;
13319;SDS011;59599;47.608;12.190;2023-04-29T16:16:49;3.17;;;1.63;;
13319;SDS011;59599;47.608;12.190;2023-04-29T16:19:15;2.22;;;1.63;;
13319;SDS011;59599;47.608;12.190;2023-04-29T16:21:41;4.63;;;1.50;;
13319;SDS011;59599;47.608;12.190;2023-04-29T16:24:10;1.55;;;1.10;;
13319;SDS011;59599;47.608;12.190;2023-04-29T16:26:36;2.28;;;1.92;;
13319;SDS011;59599;47.608;12.190;2023-04-29T16:29:04;4.80;;;3.92;;
13319;SDS011;59599;47.608;12.190;2023-04-29T16:31:30;3.33;;;2.83;;
13319;SDS011;59599;47.608;12.190;2023-04-29T16:33:57;4.35;;;3.25;;
13319;SDS011;59599;47.608;12.190;2023-04-29T16:36:23;4.90;;;2.97;;
13319;SDS011;59599;47.608;12.190;2023-04-29T16:38:49;5.28;;;2.28;;
13319;SDS011;59599;47.608;12.190;2023-04-29T16:41:17;3.40;;;1.80;;
13319;SDS011;59599;47.608;12.190;2023-04-29T16:43:43;1.42;;;1.33;;
13319;SDS011;59599;47.608;12.190;2023-04-29T16:46:09;2.65;;;1.40;;
13319;SDS011;59599;47.608;12.190;2023-04-29T16:48:35;2.47;;;1.40;;
13319;SDS011;59599;47.608;12.190;2023-04-29T16:51:01;1.45;;;1.20;;
13319;SDS011;59599;47.608;12.190;2023-04-29T16:53:28;1.90;;;1.43;;
13319;SDS011;59599;47.608;12.190;2023-04-29T16:55:54;1.20;;;1.10;;
13319;SDS011;59599;47.608;12.190;2023-04-29T16:58:19;2.50;;;1.33;;
13319;SDS011;59599;47.608;12.190;2023-04-29T17:00:45;1.38;;;1.27;;
13319;SDS011;59599;47.608;12.190;2023-04-29T17:03:11;2.70;;;1.80;;
13319;SDS011;59599;47.608;12.190;2023-04-29T17:05:37;3.47;;;1.92;;
13319;SDS011;59599;47.608;12.190;2023-04-29T17:08:03;2.75;;;2.10;;
13319;SDS011;59599;47.608;12.190;2023-04-29T17:10:29;2.53;;;2.00;;
13319;SDS011;59599;47.608;12.190;2023-04-29T17:12:55;3.17;;;1.65;;
13319;SDS011;59599;47.608;12.190;2023-04-29T17:15:21;3.42;;;2.20;;
13319;SDS011;59599;47.608;12.190;2023-04-29T17:17:47;4.80;;;3.53;;
13319;SDS011;59599;47.608;12.190;2023-04-29T17:20:15;4.43;;;3.23;;
13319;SDS011;59599;47.608;12.190;2023-04-29T17:22:40;3.53;;;2.60;;
13319;SDS011;59599;47.608;12.190;2023-04-29T17:25:07;5.40;;;1.43;;
13319;SDS011;59599;47.608;12.190;2023-04-29T17:27:33;1.57;;;1.23;;
13319;SDS011;59599;47.608;12.190;2023-04-29T17:29:59;1.63;;;1.30;;
13319;SDS011;59599;47.608;12.190;2023-04-29T17:32:25;2.80;;;1.00;;
13319;SDS011;59599;47.608;12.190;2023-04-29T17:34:55;3.80;;;2.50;;
13319;SDS011;59599;47.608;12.190;2023-04-29T17:37:21;2.17;;;1.43;;
13319;SDS011;59599;47.608;12.190;2023-04-29T17:39:49;1.80;;;1.40;;
13319;SDS011;59599;47.608;12.190;2023-04-29T17:42:18;2.37;;;1.20;;
13319;SDS011;59599;47.608;12.190;2023-04-29T17:44:45;2.60;;;0.70;;
13319;SDS011;59599;47.608;12.190;2023-04-29T17:47:11;1.77;;;0.90;;
13319;SDS011;59599;47.608;12.190;2023-04-29T17:49:37;0.90;;;0.73;;
13319;SDS011;59599;47.608;12.190;2023-04-29T17:52:03;1.30;;;0.70;;
13319;SDS011;59599;47.608;12.190;2023-04-29T17:54:29;3.53;;;0.73;;
13319;SDS011;59599;47.608;12.190;2023-04-29T17:56:55;1.80;;;0.83;;
13319;SDS011;59599;47.608;12.190;2023-04-29T17:59:21;4.93;;;4.43;;
13319;SDS011;59599;47.608;12.190;2023-04-29T18:01:47;1.10;;;0.90;;
13319;SDS011;59599;47.608;12.190;2023-04-29T18:04:13;2.53;;;1.43;;
13319;SDS011;59599;47.608;12.190;2023-04-29T18:06:39;2.13;;;1.30;;
13319;SDS011;59599;47.608;12.190;2023-04-29T18:09:05;2.47;;;1.50;;
13319;SDS011;59599;47.608;12.190;2023-04-29T18:11:31;2.50;;;1.40;;
13319;SDS011;59599;47.608;12.190;2023-04-29T18:13:57;2.77;;;1.50;;
13319;SDS011;59599;47.608;12.190;2023-04-29T18:16:23;5.67;;;1.70;;
13319;SDS011;59599;47.608;12.190;2023-04-29T18:18:50;4.30;;;1.07;;
13319;SDS011;59599;47.608;12.190;2023-04-29T18:21:19;7.43;;;1.13;;
13319;SDS011;59599;47.608;12.190;2023-04-29T18:23:46;3.07;;;1.60;;
13319;SDS011;59599;47.608;12.190;2023-04-29T18:26:12;2.67;;;2.00;;
13319;SDS011;59599;47.608;12.190;2023-04-29T18:28:38;1.93;;;1.50;;
13319;SDS011;59599;47.608;12.190;2023-04-29T18:31:04;2.33;;;1.53;;
13319;SDS011;59599;47.608;12.190;2023-04-29T18:33:30;9.37;;;3.70;;
13319;SDS011;59599;47.608;12.190;2023-04-29T18:35:56;7.63;;;3.93;;
13319;SDS011;59599;47.608;12.190;2023-04-29T18:38:22;8.23;;;3.47;;
13319;SDS011;59599;47.608;12.190;2023-04-29T18:40:48;4.10;;;2.30;;
13319;SDS011;59599;47.608;12.190;2023-04-29T18:43:14;11.73;;;5.57;;
13319;SDS011;59599;47.608;12.190;2023-04-29T18:45:42;23.70;;;8.67;;
13319;SDS011;59599;47.608;12.190;2023-04-29T18:48:08;24.53;;;8.77;;
13319;SDS011;59599;47.608;12.190;2023-04-29T18:50:36;19.03;;;7.50;;